createdAt,value
2023-01-28T05:00:39.007Z,1.50
2023-01-28T05:01:38.971Z,2.20
2023-01-28T05:02:38.945Z,0.70
2023-01-28T05:03:38.880Z,1.10
2023-01-28T05:04:45.948Z,1.60
2023-01-28T05:05:38.920Z,1.30
2023-01-28T05:06:38.908Z,1.30
2023-01-28T05:07:38.863Z,1.10
2023-01-28T05:08:38.902Z,1.10
2023-01-28T05:09:38.844Z,1.40
2023-01-28T05:10:38.887Z,1.00
2023-01-28T05:11:39.375Z,1.50
2023-01-28T05:12:38.815Z,1.10
2023-01-28T05:13:38.794Z,1.50
2023-01-28T05:14:42.799Z,1.40
2023-01-28T05:15:45.791Z,1.80
2023-01-28T05:16:38.759Z,1.10
2023-01-28T05:17:38.767Z,1.40
2023-01-28T05:18:38.732Z,1.20
2023-01-28T05:19:38.700Z,1.10
2023-01-28T05:20:38.765Z,1.60
2023-01-28T05:21:38.684Z,1.50
2023-01-28T05:22:38.691Z,1.30
2023-01-28T05:23:38.664Z,1.40
2023-01-28T05:24:38.658Z,1.40
2023-01-28T05:25:38.620Z,1.40
2023-01-28T05:26:38.671Z,1.50
2023-01-28T05:27:38.610Z,1.10
2023-01-28T05:28:38.637Z,1.10
2023-01-28T05:29:38.582Z,1.60
2023-01-28T05:30:38.626Z,1.30
2023-01-28T05:31:38.558Z,0.80
2023-01-28T05:32:38.758Z,1.40
2023-01-28T05:33:38.534Z,1.50
2023-01-28T05:34:38.539Z,1.60
2023-01-28T05:35:38.506Z,1.10
2023-01-28T05:36:38.541Z,0.60
2023-01-28T05:37:38.494Z,1.00
2023-01-28T05:38:38.535Z,1.10
2023-01-28T05:39:38.512Z,0.70
2023-01-28T05:40:38.445Z,1.80
2023-01-28T05:41:38.488Z,1.90
2023-01-28T05:42:38.422Z,1.10
2023-01-28T05:43:38.460Z,1.10
2023-01-28T05:44:38.433Z,1.40
2023-01-28T05:45:38.438Z,1.60
2023-01-28T05:46:38.360Z,1.00
2023-01-28T05:47:38.368Z,0.90
2023-01-28T05:48:38.366Z,1.20
2023-01-28T05:49:38.555Z,1.20
2023-01-28T05:50:38.324Z,1.10
2023-01-28T05:51:38.325Z,1.90
2023-01-28T05:52:38.297Z,1.40
2023-01-28T05:53:38.318Z,1.50
2023-01-28T05:54:38.280Z,1.20
2023-01-28T05:55:38.319Z,1.20
2023-01-28T05:56:38.248Z,1.20
2023-01-28T05:57:38.263Z,1.00
2023-01-28T05:58:38.228Z,1.40
2023-01-28T05:59:38.229Z,1.80
2023-01-28T06:00:38.997Z,1.70
2023-01-28T06:01:38.210Z,0.90
2023-01-28T06:02:38.267Z,1.30
2023-01-28T06:03:38.197Z,1.50
2023-01-28T06:04:38.153Z,1.40
2023-01-28T06:05:38.200Z,1.40
2023-01-28T06:06:38.175Z,1.40
2023-01-28T06:07:38.117Z,1.30
2023-01-28T06:08:38.103Z,1.40
2023-01-28T06:09:38.103Z,0.90
2023-01-28T06:10:38.072Z,1.50
2023-01-28T06:11:38.079Z,1.50
2023-01-28T06:12:38.083Z,1.20
2023-01-28T06:13:38.054Z,1.00
2023-01-28T06:14:38.022Z,1.30
2023-01-28T06:15:38.090Z,1.20
2023-01-28T06:16:37.995Z,1.20
2023-01-28T06:17:38.008Z,1.60
2023-01-28T06:18:38.089Z,1.40
2023-01-28T06:19:37.980Z,1.50
2023-01-28T06:20:37.954Z,1.40
2023-01-28T06:21:37.974Z,1.70
2023-01-28T06:22:37.925Z,1.40
2023-01-28T06:23:38.033Z,1.20
2023-01-28T06:24:37.970Z,1.50
2023-01-28T06:25:37.913Z,1.40
2023-01-28T06:26:37.868Z,1.10
2023-01-28T06:27:37.871Z,1.60
2023-01-28T06:28:37.851Z,1.60
2023-01-28T06:29:37.839Z,1.30
2023-01-28T06:30:37.903Z,0.90
2023-01-28T06:31:37.834Z,1.50
2023-01-28T06:32:37.794Z,1.80
2023-01-28T06:33:37.809Z,1.90
2023-01-28T06:34:37.776Z,1.80
2023-01-28T06:35:37.803Z,1.50
2023-01-28T06:36:37.744Z,1.20
2023-01-28T06:37:37.746Z,1.50
2023-01-28T06:38:37.728Z,1.20
2023-01-28T06:39:37.732Z,1.20
2023-01-28T06:40:37.805Z,1.40
2023-01-28T06:41:37.696Z,1.70
2023-01-28T06:42:37.671Z,1.40
2023-01-28T06:43:37.686Z,1.40
2023-01-28T06:44:37.657Z,1.70
2023-01-28T06:45:37.763Z,1.30
2023-01-28T06:46:37.660Z,1.90
2023-01-28T06:47:37.639Z,1.50
2023-01-28T06:48:37.592Z,1.60
2023-01-28T06:49:37.600Z,1.40
2023-01-28T06:50:37.642Z,2.30
2023-01-28T06:51:37.588Z,1.20
2023-01-28T06:52:37.539Z,1.00
2023-01-28T06:53:37.550Z,1.70
2023-01-28T06:54:37.524Z,1.30
2023-01-28T06:55:37.566Z,1.30
2023-01-28T06:56:37.502Z,1.50
2023-01-28T06:57:37.521Z,1.30
2023-01-28T06:58:37.474Z,1.50
2023-01-28T06:59:37.483Z,1.50
2023-01-28T07:00:37.478Z,1.40
2023-01-28T07:01:37.480Z,1.30
2023-01-28T07:02:37.445Z,0.90
2023-01-28T07:03:37.431Z,1.60
2023-01-28T07:04:37.395Z,1.40
2023-01-28T07:05:37.525Z,1.20
2023-01-28T07:06:37.371Z,1.50
2023-01-28T07:07:37.532Z,1.20
2023-01-28T07:08:37.365Z,1.30
2023-01-28T07:09:37.355Z,1.30
2023-01-28T07:10:37.323Z,1.40
2023-01-28T07:11:37.521Z,1.10
2023-01-28T07:12:37.290Z,1.50
2023-01-28T07:13:37.300Z,1.10
2023-01-28T07:14:37.273Z,1.80
2023-01-28T07:15:37.272Z,1.10
2023-01-28T07:16:37.239Z,1.60
2023-01-28T07:17:37.360Z,1.60
2023-01-28T07:18:37.235Z,1.10
2023-01-28T07:19:37.231Z,1.40
2023-01-28T07:20:37.198Z,0.80
2023-01-28T07:21:37.315Z,1.40
2023-01-28T07:22:37.168Z,1.50
2023-01-28T07:23:37.332Z,1.40
2023-01-28T07:24:37.136Z,1.50
2023-01-28T07:25:37.161Z,1.60
2023-01-28T07:26:37.116Z,0.90
2023-01-28T07:27:37.137Z,1.10
2023-01-28T07:28:37.114Z,1.20
2023-01-28T07:29:37.950Z,1.40
2023-01-28T07:30:37.065Z,1.80
2023-01-28T07:31:37.261Z,1.40
2023-01-28T07:32:37.047Z,1.30
2023-01-28T07:33:37.053Z,1.40
2023-01-28T07:34:37.169Z,1.20
2023-01-28T07:35:37.085Z,1.30
2023-01-28T07:36:37.078Z,1.30
2023-01-28T07:37:37.016Z,1.20
2023-01-28T07:38:36.990Z,1.30
2023-01-28T07:39:36.980Z,1.50
2023-01-28T07:40:37.013Z,1.40
2023-01-28T07:41:36.953Z,1.30
2023-01-28T07:42:36.923Z,1.40
2023-01-28T07:43:36.948Z,1.60
2023-01-28T07:44:37.042Z,1.60
2023-01-28T07:45:36.897Z,1.30
2023-01-28T07:46:36.925Z,1.30
2023-01-28T07:47:36.877Z,1.20
2023-01-28T07:48:36.841Z,1.40
2023-01-28T07:49:36.869Z,0.90
2023-01-28T07:50:36.823Z,1.30
2023-01-28T07:51:36.837Z,1.00
2023-01-28T07:52:36.928Z,1.40
2023-01-28T07:53:36.802Z,0.80
2023-01-28T07:54:36.775Z,1.50
2023-01-28T07:55:36.796Z,1.40
2023-01-28T07:56:36.767Z,1.20
2023-01-28T07:57:36.820Z,1.00
2023-01-28T07:58:36.733Z,1.40
2023-01-28T07:59:36.756Z,1.50
2023-01-28T08:00:36.703Z,1.30
2023-01-28T08:01:36.796Z,1.30
2023-01-28T08:02:36.716Z,1.30
2023-01-28T08:03:36.680Z,1.20
2023-01-28T08:04:36.718Z,1.50
2023-01-28T08:05:36.668Z,0.80
2023-01-28T08:06:36.631Z,1.70
2023-01-28T08:07:36.693Z,1.50
2023-01-28T08:08:36.656Z,1.70
2023-01-28T08:09:36.795Z,1.00
2023-01-28T08:10:36.644Z,1.00
2023-01-28T08:11:36.581Z,1.60
2023-01-28T08:12:36.619Z,2.30
2023-01-28T08:13:36.560Z,1.40
2023-01-28T08:14:36.522Z,1.10
2023-01-28T08:15:36.578Z,1.00
2023-01-28T08:16:36.535Z,1.80
2023-01-28T08:17:36.559Z,1.30
2023-01-28T08:18:36.475Z,1.60
2023-01-28T08:19:36.496Z,1.50
2023-01-28T08:20:36.457Z,1.60
2023-01-28T08:21:36.449Z,1.40
2023-01-28T08:22:36.449Z,1.00
2023-01-28T08:23:36.441Z,1.90
2023-01-28T08:24:36.401Z,1.60
2023-01-28T08:25:36.405Z,1.20
2023-01-28T08:26:36.461Z,1.10
2023-01-28T08:27:36.417Z,1.50
2023-01-28T08:28:36.349Z,1.90
2023-01-28T08:29:36.395Z,1.50
2023-01-28T08:30:36.371Z,1.60
2023-01-28T08:31:36.405Z,1.40
2023-01-28T08:32:36.335Z,1.60
2023-01-28T08:33:36.303Z,1.30
2023-01-28T08:34:36.288Z,1.30
2023-01-28T08:35:36.302Z,1.50
2023-01-28T08:36:36.254Z,1.90
2023-01-28T08:37:36.325Z,1.80
2023-01-28T08:38:36.326Z,2.10
2023-01-28T08:39:36.234Z,1.40
2023-01-28T08:40:36.194Z,2.00
2023-01-28T08:41:36.191Z,1.40
2023-01-28T08:42:36.203Z,1.70
2023-01-28T08:43:36.189Z,1.10
2023-01-28T08:44:36.144Z,1.70
2023-01-28T08:45:36.209Z,1.20
2023-01-28T08:46:36.224Z,1.50
2023-01-28T08:47:36.208Z,1.30
2023-01-28T08:48:36.110Z,1.40
2023-01-28T08:49:36.114Z,1.40
2023-01-28T08:50:36.083Z,1.40
2023-01-28T08:51:36.070Z,1.40
2023-01-28T08:52:36.063Z,1.80
2023-01-28T08:53:36.130Z,1.70
2023-01-28T08:54:36.035Z,1.90
2023-01-28T08:55:36.038Z,1.60
2023-01-28T08:56:36.009Z,1.90
2023-01-28T08:57:36.002Z,1.50
2023-01-28T08:58:36.060Z,1.60
2023-01-28T08:59:35.990Z,1.60
2023-01-28T09:00:35.982Z,1.70
2023-01-28T09:01:36.007Z,1.30
2023-01-28T09:02:35.914Z,1.60
2023-01-28T09:03:36.347Z,1.10
2023-01-28T09:04:35.894Z,1.70
2023-01-28T09:05:35.973Z,1.30
2023-01-28T09:06:35.887Z,1.30
2023-01-28T09:07:35.881Z,1.90
2023-01-28T09:08:35.853Z,2.10
2023-01-28T09:09:35.904Z,1.70
2023-01-28T09:10:35.812Z,1.70
2023-01-28T09:11:35.834Z,1.60
2023-01-28T09:12:35.788Z,2.10
2023-01-28T09:13:35.813Z,2.30
2023-01-28T09:14:35.791Z,1.40
2023-01-28T09:15:35.850Z,1.40
2023-01-28T09:16:35.733Z,2.00
2023-01-28T09:17:35.769Z,1.30
2023-01-28T09:18:35.719Z,1.50
2023-01-28T09:19:35.721Z,1.70
2023-01-28T09:20:35.757Z,1.70
2023-01-28T09:21:35.700Z,1.50
2023-01-28T09:22:35.681Z,2.30
2023-01-28T09:23:35.671Z,1.40
2023-01-28T09:24:37.922Z,1.60
2023-01-28T09:25:35.706Z,2.00
2023-01-28T09:26:35.616Z,1.00
2023-01-28T09:27:35.628Z,1.60
2023-01-28T09:28:35.597Z,2.20
2023-01-28T09:29:35.604Z,1.60
2023-01-28T09:30:37.275Z,1.20
2023-01-28T09:31:35.848Z,2.40
2023-01-28T09:32:35.535Z,1.80
2023-01-28T09:33:35.536Z,1.60
2023-01-28T09:34:35.514Z,1.50
2023-01-28T09:35:35.528Z,1.60
2023-01-28T09:36:35.488Z,2.00
2023-01-28T09:37:35.553Z,1.80
2023-01-28T09:38:35.466Z,1.50
2023-01-28T09:39:35.468Z,1.40
2023-01-28T09:40:35.438Z,1.80
2023-01-28T09:41:35.433Z,1.70
2023-01-28T09:42:35.418Z,1.50
2023-01-28T09:43:35.495Z,1.40
2023-01-28T09:44:35.414Z,2.40
2023-01-28T09:45:35.406Z,1.60
2023-01-28T09:46:35.392Z,3.90
2023-01-28T09:47:35.379Z,1.80
2023-01-28T09:48:35.334Z,2.10
2023-01-28T09:49:35.530Z,1.30
2023-01-28T09:50:35.331Z,2.00
2023-01-28T09:51:35.300Z,1.50
2023-01-28T09:52:35.334Z,1.70
2023-01-28T09:53:35.280Z,2.20
2023-01-28T09:54:35.298Z,2.40
2023-01-28T09:55:35.330Z,1.90
2023-01-28T09:56:35.283Z,2.30
2023-01-28T09:57:35.228Z,1.80
2023-01-28T09:58:35.245Z,1.30
2023-01-28T09:59:35.302Z,2.40
2023-01-28T10:00:35.277Z,2.10
2023-01-28T10:01:35.169Z,1.90
2023-01-28T10:02:35.179Z,2.10
2023-01-28T10:03:35.169Z,1.90
2023-01-28T10:04:35.217Z,2.00
2023-01-28T10:05:35.157Z,2.00
2023-01-28T10:06:35.119Z,1.70
2023-01-28T10:07:35.110Z,1.50
2023-01-28T10:08:35.105Z,1.50
2023-01-28T10:09:35.124Z,2.00
2023-01-28T10:10:35.073Z,1.50
2023-01-28T10:11:35.051Z,1.50
2023-01-28T10:12:35.058Z,1.80
2023-01-28T10:13:35.031Z,1.50
2023-01-28T10:14:35.031Z,2.10
2023-01-28T10:15:35.067Z,1.80
2023-01-28T10:16:35.003Z,1.60
2023-01-28T10:17:35.022Z,1.30
2023-01-28T10:18:34.984Z,1.20
2023-01-28T10:19:35.043Z,1.80
2023-01-28T10:20:34.953Z,1.50
2023-01-28T10:21:34.923Z,1.90
2023-01-28T10:22:34.932Z,1.90
2023-01-28T10:23:34.892Z,1.20
2023-01-28T10:24:35.085Z,1.70
2023-01-28T10:25:34.881Z,1.80
2023-01-28T10:26:34.879Z,1.90
2023-01-28T10:27:34.854Z,2.00
2023-01-28T10:28:34.863Z,1.70
2023-01-28T10:29:34.820Z,1.40
2023-01-28T10:30:34.996Z,1.30
2023-01-28T10:31:34.848Z,2.30
2023-01-28T10:32:34.816Z,1.70
2023-01-28T10:33:34.769Z,1.90
2023-01-28T10:34:34.781Z,2.40
2023-01-28T10:35:34.788Z,2.10
2023-01-28T10:36:34.759Z,2.70
2023-01-28T10:37:34.741Z,2.80
2023-01-28T10:38:34.741Z,2.30
2023-01-28T10:39:34.694Z,2.00
2023-01-28T10:40:34.745Z,1.90
2023-01-28T10:41:34.701Z,1.90
2023-01-28T10:42:34.682Z,1.80
2023-01-28T10:43:34.655Z,1.40
2023-01-28T10:44:34.657Z,2.50
2023-01-28T10:45:34.719Z,1.50
2023-01-28T10:46:34.635Z,1.40
2023-01-28T10:47:34.594Z,1.50
2023-01-28T10:48:34.603Z,1.80
2023-01-28T10:49:34.647Z,1.80
2023-01-28T10:50:34.770Z,1.80
2023-01-28T10:51:34.549Z,2.00
2023-01-28T10:52:34.560Z,1.90
2023-01-28T10:53:34.557Z,1.70
2023-01-28T10:54:34.604Z,1.60
2023-01-28T10:55:34.541Z,1.60
2023-01-28T10:56:34.529Z,1.70
2023-01-28T10:57:34.486Z,1.70
2023-01-28T10:58:34.484Z,1.50
2023-01-28T10:59:34.436Z,1.70
2023-01-28T11:00:34.560Z,1.60
2023-01-28T11:01:34.411Z,1.70
2023-01-28T11:02:34.557Z,1.50
2023-01-28T11:03:34.391Z,1.60
2023-01-28T11:04:34.391Z,1.20
2023-01-28T11:05:34.938Z,1.80
2023-01-28T11:06:34.379Z,1.40
2023-01-28T11:07:34.342Z,1.80
2023-01-28T11:08:34.340Z,1.10
2023-01-28T11:09:34.332Z,1.30
2023-01-28T11:10:34.307Z,1.40
2023-01-28T11:11:34.349Z,1.20
2023-01-28T11:12:34.337Z,2.10
2023-01-28T11:13:34.271Z,1.40
2023-01-28T11:14:34.267Z,1.80
2023-01-28T11:15:41.877Z,1.80
2023-01-28T11:16:34.288Z,1.70
2023-01-28T11:17:34.244Z,1.90
2023-01-28T11:18:34.226Z,1.90
2023-01-28T11:19:34.220Z,1.50
2023-01-28T11:20:34.531Z,1.90
2023-01-28T11:21:34.182Z,1.80
2023-01-28T11:22:34.220Z,2.40
2023-01-28T11:23:34.145Z,2.10
2023-01-28T11:24:34.244Z,1.70
2023-01-28T11:25:34.103Z,1.90
2023-01-28T11:26:34.209Z,1.70
2023-01-28T11:27:34.139Z,1.40
2023-01-28T11:28:34.133Z,1.90
2023-01-28T11:29:34.062Z,1.30
2023-01-28T11:30:34.147Z,1.60
2023-01-28T11:31:34.154Z,2.60
2023-01-28T11:32:34.055Z,1.80
2023-01-28T11:33:34.025Z,1.30
2023-01-28T11:34:34.019Z,1.90
2023-01-28T11:35:34.250Z,1.90
2023-01-28T11:36:33.996Z,2.20
2023-01-28T11:37:33.961Z,2.50
2023-01-28T11:38:33.965Z,1.40
2023-01-28T11:39:33.986Z,1.90
2023-01-28T11:40:33.939Z,2.20
2023-01-28T11:41:33.958Z,2.00
2023-01-28T11:42:33.965Z,1.90
2023-01-28T11:43:33.894Z,2.30
2023-01-28T11:44:33.949Z,1.90
2023-01-28T11:45:33.906Z,2.10
2023-01-28T11:46:33.984Z,1.40
2023-01-28T11:47:33.924Z,1.90
2023-01-28T11:48:33.869Z,2.20
2023-01-28T11:49:33.816Z,2.40
2023-01-28T11:50:33.833Z,2.10
2023-01-28T11:51:33.830Z,1.60
2023-01-28T11:52:55.303Z,1.50
2023-01-28T11:53:34.772Z,1.90
2023-01-28T11:54:34.719Z,1.60
2023-01-28T11:55:33.824Z,1.80
2023-01-28T11:56:33.740Z,2.00
2023-01-28T11:57:33.772Z,2.40
2023-01-28T11:58:33.711Z,2.80
2023-01-28T11:59:33.677Z,4.00
2023-01-28T12:00:33.690Z,5.40
2023-01-28T12:01:33.651Z,3.00
2023-01-28T12:02:33.692Z,3.60
2023-01-28T12:03:34.114Z,4.00
2023-01-28T12:04:33.708Z,3.20
2023-01-28T12:05:33.602Z,3.00
2023-01-28T12:06:35.592Z,1.90
2023-01-28T12:07:33.573Z,1.90
2023-01-28T12:08:33.610Z,2.00
2023-01-28T12:09:33.643Z,1.60
2023-01-28T12:10:33.590Z,1.70
2023-01-28T12:11:33.532Z,1.70
2023-01-28T12:12:33.554Z,2.10
2023-01-28T12:13:33.530Z,2.10
2023-01-28T12:14:33.521Z,2.00
2023-01-28T12:15:33.960Z,2.60
2023-01-28T12:16:33.517Z,2.10
2023-01-28T12:17:33.489Z,1.70
2023-01-28T12:18:33.464Z,1.90
2023-01-28T12:19:33.436Z,2.00
2023-01-28T12:20:33.545Z,1.80
2023-01-28T12:21:33.494Z,1.40
2023-01-28T12:22:33.411Z,1.70
2023-01-28T12:23:33.513Z,1.90
2023-01-28T12:24:33.496Z,1.50
2023-01-28T12:25:33.347Z,1.50
2023-01-28T12:26:33.355Z,1.20
2023-01-28T12:27:33.385Z,1.90
2023-01-28T12:28:33.320Z,1.60
2023-01-28T12:29:33.295Z,1.80
2023-01-28T12:30:33.317Z,2.00
2023-01-28T12:31:33.338Z,1.80
2023-01-28T12:32:33.508Z,1.60
2023-01-28T12:33:33.263Z,1.90
2023-01-28T12:34:33.259Z,1.60
2023-01-28T12:35:33.229Z,2.50
2023-01-28T12:36:33.259Z,2.50
2023-01-28T12:37:33.194Z,2.00
2023-01-28T12:38:34.050Z,1.40
2023-01-28T12:39:33.182Z,2.40
2023-01-28T12:40:33.745Z,2.40
2023-01-28T12:41:33.180Z,1.80
2023-01-28T12:42:33.172Z,1.90
2023-01-28T12:43:33.147Z,1.90
2023-01-28T12:44:33.200Z,1.60
2023-01-28T12:45:33.248Z,1.70
2023-01-28T12:46:33.111Z,1.30
2023-01-28T12:47:33.109Z,1.80
2023-01-28T12:48:33.158Z,1.70
2023-01-28T12:49:33.074Z,2.00
2023-01-28T12:50:33.123Z,1.80
2023-01-28T12:51:33.079Z,1.80
2023-01-28T12:52:33.029Z,1.60
2023-01-28T12:53:32.992Z,1.60
2023-01-28T12:54:33.065Z,1.70
2023-01-28T12:55:33.001Z,1.50
2023-01-28T12:56:33.274Z,1.40
2023-01-28T12:57:32.951Z,1.50
2023-01-28T12:58:32.962Z,1.90
2023-01-28T12:59:32.962Z,1.50
2023-01-28T13:00:32.985Z,1.60
2023-01-28T13:01:32.932Z,2.30
2023-01-28T13:02:32.909Z,1.90
2023-01-28T13:03:32.886Z,1.80
2023-01-28T13:04:32.890Z,1.60
2023-01-28T13:05:33.110Z,2.40
2023-01-28T13:06:32.857Z,1.80
2023-01-28T13:07:32.834Z,1.50
2023-01-28T13:08:32.957Z,2.00
2023-01-28T13:09:32.805Z,1.60
2023-01-28T13:10:33.381Z,2.30
2023-01-28T13:11:32.823Z,1.70
2023-01-28T13:12:32.789Z,1.70
2023-01-28T13:13:32.768Z,2.00
2023-01-28T13:14:32.766Z,2.00
2023-01-28T13:15:32.743Z,1.50
2023-01-28T13:16:37.795Z,2.30
2023-01-28T13:17:33.744Z,1.30
2023-01-28T13:18:32.695Z,2.10
2023-01-28T13:19:32.662Z,2.00
2023-01-28T13:20:32.991Z,1.80
2023-01-28T13:21:40.107Z,2.20
2023-01-28T13:22:33.695Z,1.50
2023-01-28T13:23:32.636Z,1.80
2023-01-28T13:24:32.698Z,1.60
2023-01-28T13:25:32.592Z,2.00
2023-01-28T13:26:32.799Z,1.70
2023-01-28T13:27:32.613Z,2.10
2023-01-28T13:28:32.594Z,2.50
2023-01-28T13:29:32.544Z,2.40
2023-01-28T13:30:32.784Z,3.00
2023-01-28T13:31:32.549Z,2.50
2023-01-28T13:32:32.609Z,3.10
2023-01-28T13:33:32.503Z,1.90
2023-01-28T13:34:32.529Z,1.60
2023-01-28T13:35:32.527Z,1.30
2023-01-28T13:36:32.470Z,1.90
2023-01-28T13:37:32.469Z,2.30
2023-01-28T13:38:32.483Z,2.50
2023-01-28T13:39:32.547Z,2.80
2023-01-28T13:40:32.475Z,1.90
2023-01-28T13:41:32.654Z,2.30
2023-01-28T13:42:32.400Z,2.00
2023-01-28T13:43:32.365Z,1.40
2023-01-28T13:44:32.378Z,1.50
2023-01-28T13:45:32.360Z,2.30
2023-01-28T13:46:32.374Z,2.40
2023-01-28T13:47:32.528Z,1.60
2023-01-28T13:48:32.325Z,2.00
2023-01-28T13:49:32.289Z,1.80
2023-01-28T13:50:32.304Z,2.20
2023-01-28T13:51:32.269Z,1.60
2023-01-28T13:52:32.288Z,2.50
2023-01-28T13:53:32.416Z,2.10
2023-01-28T13:54:32.241Z,1.70
2023-01-28T13:55:43.539Z,1.70
2023-01-28T13:56:33.256Z,1.70
2023-01-28T13:57:32.190Z,2.00
2023-01-28T13:58:34.031Z,1.70
2023-01-28T13:59:32.198Z,1.50
2023-01-28T14:00:32.201Z,1.70
2023-01-28T14:01:32.255Z,1.60
2023-01-28T14:02:32.140Z,1.80
2023-01-28T14:03:32.241Z,1.60
2023-01-28T14:04:32.164Z,1.40
2023-01-28T14:05:32.128Z,1.80
2023-01-28T14:06:32.070Z,2.40
2023-01-28T14:07:32.087Z,1.20
2023-01-28T14:08:32.183Z,1.70
2023-01-28T14:09:32.075Z,1.60
2023-01-28T14:10:32.142Z,1.80
2023-01-28T14:11:32.066Z,1.40
2023-01-28T14:12:32.202Z,1.80
2023-01-28T14:13:32.038Z,1.70
2023-01-28T14:14:31.978Z,1.50
2023-01-28T14:15:32.278Z,1.20
2023-01-28T14:16:31.950Z,1.60
2023-01-28T14:17:31.967Z,1.30
2023-01-28T14:18:32.008Z,1.60
2023-01-28T14:19:31.979Z,1.40
2023-01-28T14:20:31.917Z,1.50
2023-01-28T14:21:31.916Z,1.80
2023-01-28T14:22:31.895Z,1.50
2023-01-28T14:23:32.650Z,1.80
2023-01-28T14:24:31.967Z,2.10
2023-01-28T14:25:31.869Z,1.70
2023-01-28T14:26:31.832Z,1.30
2023-01-28T14:27:31.827Z,2.00
2023-01-28T14:28:31.869Z,1.70
2023-01-28T14:29:31.973Z,1.20
2023-01-28T14:30:31.790Z,1.90
2023-01-28T14:31:31.884Z,1.40
2023-01-28T14:32:31.798Z,1.20
2023-01-28T14:33:31.762Z,1.30
2023-01-28T14:34:31.779Z,1.40
2023-01-28T14:35:31.760Z,1.80
2023-01-28T14:36:31.692Z,1.60
2023-01-28T14:37:31.711Z,1.60
2023-01-28T14:38:31.710Z,1.30
2023-01-28T14:39:31.748Z,1.30
2023-01-28T14:40:31.679Z,1.40
2023-01-28T14:41:31.662Z,1.10
2023-01-28T14:42:31.639Z,1.70
2023-01-28T14:43:31.687Z,1.00
2023-01-28T14:44:31.611Z,1.10
2023-01-28T14:45:31.705Z,1.20
2023-01-28T14:46:31.612Z,0.90
2023-01-28T14:47:31.580Z,1.60
2023-01-28T14:48:31.541Z,1.20
2023-01-28T14:49:31.567Z,1.00
2023-01-28T14:50:32.366Z,1.00
2023-01-28T14:51:31.539Z,1.30
2023-01-28T14:52:31.497Z,1.30
2023-01-28T14:53:31.521Z,1.50
2023-01-28T14:54:31.525Z,1.30
2023-01-28T14:55:31.500Z,1.50
2023-01-28T14:56:31.834Z,1.30
2023-01-28T14:57:31.471Z,1.20
2023-01-28T14:58:31.415Z,1.40
2023-01-28T14:59:31.464Z,1.40
2023-01-28T15:00:31.415Z,1.30
2023-01-28T15:01:31.517Z,0.80
2023-01-28T15:02:32.040Z,1.40
2023-01-28T15:03:31.487Z,1.20
2023-01-28T15:04:31.343Z,1.40
2023-01-28T15:05:31.371Z,1.30
2023-01-28T15:06:31.574Z,1.20
2023-01-28T15:07:31.429Z,1.30
2023-01-28T15:08:31.489Z,1.10
2023-01-28T15:09:31.367Z,0.80
2023-01-28T15:10:31.436Z,1.10
2023-01-28T15:11:31.322Z,1.60
2023-01-28T15:12:31.623Z,1.50
2023-01-28T15:13:31.306Z,1.40
2023-01-28T15:14:31.269Z,1.10
2023-01-28T15:15:31.219Z,1.60
2023-01-28T15:16:31.330Z,1.00
2023-01-28T15:17:31.240Z,1.40
2023-01-28T15:18:31.194Z,1.20
2023-01-28T15:19:31.428Z,1.40
2023-01-28T15:20:31.164Z,1.10
2023-01-28T15:21:31.211Z,1.00
2023-01-28T15:22:31.122Z,1.10
2023-01-28T15:23:31.119Z,1.60
2023-01-28T15:24:31.304Z,1.60
2023-01-28T15:25:31.097Z,2.60
2023-01-28T15:26:31.089Z,1.70
2023-01-28T15:27:31.138Z,2.40
2023-01-28T15:28:31.057Z,2.50
2023-01-28T15:29:31.173Z,2.50
2023-01-28T15:30:31.275Z,5.80
2023-01-28T15:31:31.117Z,4.50
2023-01-28T15:32:31.119Z,3.00
2023-01-28T15:33:31.133Z,1.80
2023-01-28T15:34:30.967Z,2.00
2023-01-28T15:35:31.052Z,1.40
2023-01-28T15:36:31.079Z,1.40
2023-01-28T15:37:30.966Z,1.10
2023-01-28T15:38:30.961Z,1.30
2023-01-28T15:39:30.942Z,1.20
2023-01-28T15:40:30.921Z,1.50
2023-01-28T15:41:30.932Z,1.50
2023-01-28T15:42:30.885Z,1.50
2023-01-28T15:43:30.902Z,1.60
2023-01-28T15:44:30.837Z,1.20
2023-01-28T15:45:30.902Z,1.20
2023-01-28T15:46:30.841Z,1.10
2023-01-28T15:47:30.934Z,1.50
2023-01-28T15:48:30.838Z,1.30
2023-01-28T15:49:30.784Z,1.20
2023-01-28T15:50:30.797Z,1.80
2023-01-28T15:51:30.802Z,1.40
2023-01-28T15:52:30.762Z,0.90
2023-01-28T15:53:30.755Z,1.10
2023-01-28T15:54:30.761Z,1.30
2023-01-28T15:55:30.769Z,1.10
2023-01-28T15:56:30.694Z,1.50
2023-01-28T15:57:30.720Z,1.30
2023-01-28T15:58:30.666Z,1.60
2023-01-28T15:59:30.683Z,1.00
2023-01-28T16:00:31.467Z,1.70
2023-01-28T16:01:30.662Z,1.40
2023-01-28T16:02:30.613Z,0.90
2023-01-28T16:03:30.660Z,1.00
2023-01-28T16:04:30.630Z,1.40
2023-01-28T16:05:30.736Z,1.40
2023-01-28T16:06:30.605Z,1.00
2023-01-28T16:07:30.590Z,1.20
2023-01-28T16:08:30.540Z,1.10
2023-01-28T16:09:30.558Z,1.00
2023-01-28T16:10:30.665Z,1.10
2023-01-28T16:11:30.572Z,1.30
2023-01-28T16:12:30.512Z,1.40
2023-01-28T16:13:30.541Z,1.30
2023-01-28T16:14:30.560Z,1.30
2023-01-28T16:15:30.774Z,1.10
2023-01-28T16:16:30.613Z,1.40
2023-01-28T16:17:30.493Z,1.50
2023-01-28T16:18:30.417Z,1.60
2023-01-28T16:19:30.428Z,1.70
2023-01-28T16:20:30.451Z,1.10
2023-01-28T16:21:30.419Z,1.80
2023-01-28T16:22:30.367Z,1.10
2023-01-28T16:23:30.386Z,2.10
2023-01-28T16:24:30.788Z,1.30
2023-01-28T16:25:30.567Z,1.00
2023-01-28T16:26:30.420Z,1.60
2023-01-28T16:27:30.325Z,1.00
2023-01-28T16:28:30.278Z,1.00
2023-01-28T16:29:31.246Z,1.40
2023-01-28T16:30:30.388Z,1.80
2023-01-28T16:31:30.655Z,1.40
2023-01-28T16:32:30.336Z,1.20
2023-01-28T16:33:30.463Z,1.10
2023-01-28T16:34:30.503Z,1.50
2023-01-28T16:35:47.243Z,1.10
2023-01-28T16:36:31.179Z,1.60
2023-01-28T16:37:30.187Z,1.30
2023-01-28T16:38:30.169Z,1.30
2023-01-28T16:39:30.154Z,1.10
2023-01-28T16:40:30.138Z,1.20
2023-01-28T16:41:30.230Z,1.40
2023-01-28T16:42:30.135Z,1.00
2023-01-28T16:43:30.154Z,1.50
2023-01-28T16:44:30.186Z,1.00
2023-01-28T16:45:30.202Z,1.30
2023-01-28T16:46:30.101Z,1.00
2023-01-28T16:47:30.043Z,1.10
2023-01-28T16:48:30.031Z,1.00
2023-01-28T16:49:30.090Z,1.10
2023-01-28T16:50:30.160Z,1.60
2023-01-28T16:51:30.046Z,1.40
2023-01-28T16:52:29.971Z,1.60
2023-01-28T16:53:29.971Z,1.10
2023-01-28T16:54:29.943Z,1.40
2023-01-28T16:55:30.133Z,1.50
2023-01-28T16:56:43.895Z,1.20
2023-01-28T16:57:30.928Z,1.30
2023-01-28T16:58:29.989Z,1.50
2023-01-28T16:59:29.905Z,1.10
2023-01-28T17:00:29.958Z,1.10
2023-01-28T17:01:29.940Z,1.30
2023-01-28T17:02:30.072Z,2.30
2023-01-28T17:03:29.911Z,1.50
2023-01-28T17:04:29.929Z,1.40
2023-01-28T17:05:29.826Z,1.50
2023-01-28T17:06:29.851Z,1.50
2023-01-28T17:07:29.894Z,1.00
2023-01-28T17:08:29.806Z,1.00
2023-01-28T17:09:29.786Z,1.30
2023-01-28T17:10:29.742Z,1.50
2023-01-28T17:11:29.918Z,1.40
2023-01-28T17:12:29.733Z,1.30
2023-01-28T17:13:29.730Z,1.60
2023-01-28T17:14:29.690Z,1.30
2023-01-28T17:15:36.737Z,1.20
2023-01-28T17:16:30.081Z,1.60
2023-01-28T17:17:30.438Z,1.70
2023-01-28T17:18:29.662Z,1.10
2023-01-28T17:19:29.645Z,1.40
2023-01-28T17:20:29.644Z,1.50
2023-01-28T17:21:29.641Z,1.40
2023-01-28T17:22:29.633Z,1.20
2023-01-28T17:23:29.586Z,1.60
2023-01-28T17:24:29.669Z,1.30
2023-01-28T17:25:29.598Z,1.50
2023-01-28T17:26:29.904Z,1.50
2023-01-28T17:27:29.556Z,1.60
2023-01-28T17:28:29.559Z,2.20
2023-01-28T17:29:29.564Z,1.40
2023-01-28T17:30:29.481Z,1.30
2023-01-28T17:31:29.643Z,1.90
2023-01-28T17:32:29.529Z,1.50
2023-01-28T17:33:29.474Z,1.50
2023-01-28T17:34:29.442Z,1.70
2023-01-28T17:35:29.453Z,1.80
2023-01-28T17:36:29.452Z,2.50
2023-01-28T17:37:29.784Z,1.40
2023-01-28T17:38:29.387Z,1.80
2023-01-28T17:39:29.494Z,1.40
2023-01-28T17:40:29.368Z,1.80
2023-01-28T17:41:29.365Z,1.20
2023-01-28T17:42:29.338Z,1.60
2023-01-28T17:43:29.413Z,1.40
2023-01-28T17:44:29.317Z,2.20
2023-01-28T17:45:29.332Z,1.60
2023-01-28T17:46:29.292Z,1.60
2023-01-28T17:47:29.295Z,1.70
2023-01-28T17:48:29.267Z,2.20
2023-01-28T17:49:29.344Z,1.60
2023-01-28T17:50:29.244Z,5.00
2023-01-28T17:51:29.262Z,3.00
2023-01-28T17:52:29.219Z,6.60
2023-01-28T17:53:29.235Z,6.00
2023-01-28T17:54:29.332Z,4.60
2023-01-28T17:55:29.686Z,3.50
2023-01-28T17:56:29.171Z,2.40
2023-01-28T17:57:29.221Z,2.20
2023-01-28T17:58:29.131Z,2.10
2023-01-28T17:59:29.260Z,1.80
2023-01-28T18:00:29.126Z,1.30
2023-01-28T18:01:29.730Z,1.00
2023-01-28T18:02:29.157Z,1.90
2023-01-28T18:03:29.100Z,1.40
2023-01-28T18:04:29.090Z,2.40
2023-01-28T18:05:29.087Z,2.40
2023-01-28T18:06:29.049Z,1.60
2023-01-28T18:07:29.083Z,2.10
2023-01-28T18:08:29.069Z,2.20
2023-01-28T18:09:29.029Z,1.90
2023-01-28T18:10:29.093Z,2.00
2023-01-28T18:11:28.997Z,1.80
2023-01-28T18:12:29.195Z,2.10
2023-01-28T18:13:29.047Z,2.60
2023-01-28T18:14:28.956Z,2.70
2023-01-28T18:15:28.964Z,2.00
2023-01-28T18:16:28.973Z,2.20
2023-01-28T18:17:28.913Z,2.00
2023-01-28T18:18:29.134Z,1.90